Time;durP1;ratioP1;P1;durP2;ratioP2;P2;SDS_P1;SDS_P2;PMS_P1;PMS_P2;Temp;Humidity;BMP_temperature;BMP_pressure;BME280_temperature;BME280_humidity;BME280_pressure;Samples;Min_cycle;Max_cycle;Signal;HPM_P1;HPM_P2
2021/09/12 00:01:53;;;;;;;10.00;8.33;;;;;;;14.99;100.00;100835.72;5011154;28;20729;-73
2021/09/12 00:04:19;;;;;;;10.07;8.37;;;;;;;14.96;100.00;100832.28;5017791;28;20223;-72
2021/09/12 00:06:47;;;;;;;10.80;8.60;;;;;;;14.94;100.00;100842.00;5022861;28;20207;-72
2021/09/12 00:09:14;;;;;;;9.27;8.27;;;;;;;14.94;100.00;100843.78;5022951;28;20193;-73
2021/09/12 00:11:40;;;;;;;11.03;8.40;;;;;;;14.90;100.00;100843.06;5023203;28;20213;-73
2021/09/12 00:14:07;;;;;;;10.80;8.57;;;;;;;14.90;100.00;100843.06;5021782;28;20216;-73
2021/09/12 00:16:33;;;;;;;11.33;8.63;;;;;;;14.89;100.00;100837.88;5025254;28;20198;-73
2021/09/12 00:19:01;;;;;;;10.87;7.70;;;;;;;14.85;100.00;100838.91;5019935;28;20198;-72
2021/09/12 00:21:27;;;;;;;13.63;9.03;;;;;;;14.83;100.00;100836.34;5019440;28;20290;-73
2021/09/12 00:23:53;;;;;;;10.27;8.40;;;;;;;14.81;100.00;100830.31;5019799;28;20226;-72
2021/09/12 00:26:20;;;;;;;11.13;8.73;;;;;;;14.79;100.00;100837.38;5023887;28;20203;-72
2021/09/12 00:28:46;;;;;;;9.43;8.03;;;;;;;14.74;100.00;100839.34;5020592;28;20251;-73
2021/09/12 00:31:13;;;;;;;9.60;8.60;;;;;;;14.70;100.00;100841.22;5023018;28;20210;-72
2021/09/12 00:33:39;;;;;;;10.60;7.83;;;;;;;14.69;100.00;100842.16;5020165;28;20213;-72
2021/09/12 00:36:07;;;;;;;12.53;8.53;;;;;;;14.65;100.00;100843.19;5014644;28;20684;-73
2021/09/12 00:38:33;;;;;;;12.13;8.30;;;;;;;14.63;100.00;100841.53;5011120;28;20213;-72
2021/09/12 00:41:00;;;;;;;11.63;8.87;;;;;;;14.64;100.00;100838.00;5020559;28;20200;-73
2021/09/12 00:43:27;;;;;;;11.93;8.47;;;;;;;14.61;100.00;100836.34;5021893;28;20684;-73
2021/09/12 00:45:55;;;;;;;11.40;8.27;;;;;;;14.56;100.00;100835.63;5019653;28;20206;-73
2021/09/12 00:48:22;;;;;;;12.07;8.50;;;;;;;14.52;100.00;100841.91;5020817;28;20558;-73
2021/09/12 00:50:48;;;;;;;10.53;8.43;;;;;;;14.47;100.00;100843.88;5019408;28;20224;-72
2021/09/12 00:53:16;;;;;;;11.30;8.33;;;;;;;14.48;100.00;100842.97;5023369;28;20244;-73
2021/09/12 00:55:43;;;;;;;12.73;8.97;;;;;;;14.46;100.00;100840.41;5021489;28;20208;-73
2021/09/12 00:58:12;;;;;;;11.27;8.93;;;;;;;14.44;100.00;100844.84;5023668;28;20204;-73
2021/09/12 01:00:38;;;;;;;19.93;9.03;;;;;;;14.44;100.00;100841.34;5020895;28;20196;-73
2021/09/12 01:03:05;;;;;;;12.70;8.77;;;;;;;14.43;100.00;100844.91;5021477;28;20239;-73
2021/09/12 01:05:31;;;;;;;13.33;9.00;;;;;;;14.40;100.00;100845.88;5019300;28;20201;-73
2021/09/12 01:07:57;;;;;;;12.80;9.23;;;;;;;14.38;100.00;100843.28;5022793;28;20205;-72
2021/09/12 01:10:25;;;;;;;12.47;9.60;;;;;;;14.36;100.00;100844.28;5022864;28;20701;-73
2021/09/12 01:12:52;;;;;;;12.73;9.63;;;;;;;14.38;100.00;100837.22;5020889;28;20228;-73
2021/09/12 01:15:18;;;;;;;14.97;9.47;;;;;;;14.42;100.00;100843.19;5021599;28;20197;-73
2021/09/12 01:17:45;;;;;;;14.10;9.93;;;;;;;14.37;100.00;100849.47;5019912;28;20222;-72
2021/09/12 01:20:13;;;;;;;12.30;9.63;;;;;;;14.31;100.00;100847.06;5022783;28;20204;-71
2021/09/12 01:22:39;;;;;;;10.90;8.77;;;;;;;14.30;100.00;100855.00;5022403;28;20236;-73
2021/09/12 01:25:08;;;;;;;13.30;8.90;;;;;;;14.28;100.00;100856.81;5017495;28;20230;-72
2021/09/12 01:27:34;;;;;;;13.27;9.60;;;;;;;14.30;100.00;100849.75;5017657;28;20267;-72
2021/09/12 01:30:02;;;;;;;14.03;9.17;;;;;;;14.30;100.00;100855.00;5024976;28;20203;-73
2021/09/12 01:32:28;;;;;;;20.60;10.60;;;;;;;14.28;100.00;100852.47;5018101;28;20733;-72
2021/09/12 01:34:54;;;;;;;15.70;10.63;;;;;;;14.30;100.00;100857.63;5022082;28;20218;-72
2021/09/12 01:37:21;;;;;;;14.30;9.37;;;;;;;14.28;100.00;100854.19;5020083;28;20562;-73
2021/09/12 01:39:47;;;;;;;13.27;9.53;;;;;;;14.25;100.00;100846.44;5019347;28;20270;-73
2021/09/12 01:42:15;;;;;;;16.90;10.37;;;;;;;14.26;100.00;100850.78;5022630;28;20223;-73
2021/09/12 01:44:45;;;;;;;14.97;9.07;;;;;;;14.24;100.00;100852.63;5027258;28;20227;-75
2021/09/12 01:47:12;;;;;;;13.33;9.47;;;;;;;14.20;100.00;100846.63;5018291;28;20200;-73
2021/09/12 01:49:38;;;;;;;11.57;8.93;;;;;;;14.18;100.00;100846.69;5023812;28;20207;-72
2021/09/12 01:52:06;;;;;;;14.40;9.90;;;;;;;14.16;100.00;100851.13;5026976;28;20237;-72
2021/09/12 01:54:32;;;;;;;15.23;9.27;;;;;;;14.15;100.00;100853.81;5026310;28;20203;-73
2021/09/12 01:56:58;;;;;;;13.20;8.57;;;;;;;14.10;100.00;100859.22;5024229;28;20231;-73
2021/09/12 01:59:26;;;;;;;13.90;9.13;;;;;;;14.05;100.00;100861.16;5022489;28;20213;-71
2021/09/12 02:01:52;;;;;;;10.60;7.87;;;;;;;14.00;100.00;100857.84;5016462;28;20727;-73
2021/09/12 02:04:19;;;;;;;14.80;9.33;;;;;;;14.03;100.00;100860.38;5023351;28;20581;-73
2021/09/12 02:06:45;;;;;;;14.97;9.00;;;;;;;14.05;100.00;100857.69;5028553;28;20666;-72
2021/09/12 02:09:11;;;;;;;11.87;8.50;;;;;;;14.00;100.00;100857.84;5016872;28;20208;-73
2021/09/12 02:11:38;;;;;;;13.83;9.87;;;;;;;13.97;100.00;100852.75;5026480;28;20207;-72
2021/09/12 02:14:05;;;;;;;13.47;9.53;;;;;;;13.95;100.00;100855.41;5021632;28;20204;-71
2021/09/12 02:16:48;;;;;;;14.23;9.23;;;;;;;13.93;100.00;100856.38;5027200;28;20213;-71
2021/09/12 02:19:14;;;;;;;11.77;8.03;;;;;;;13.86;100.00;100845.28;5023716;28;20839;-72
2021/09/12 02:21:40;;;;;;;11.13;8.47;;;;;;;13.87;100.00;100848.75;5019836;28;20694;-72
2021/09/12 02:24:07;;;;;;;10.67;8.23;;;;;;;13.87;100.00;100851.34;5025381;28;20211;-72
2021/09/12 02:26:33;;;;;;;12.00;8.00;;;;;;;13.80;100.00;100848.09;5022665;28;20204;-73
2021/09/12 02:29:00;;;;;;;15.60;8.40;;;;;;;13.71;100.00;100846.66;5025216;28;20234;-72
2021/09/12 02:31:26;;;;;;;8.93;6.90;;;;;;;13.66;100.00;100853.81;5025076;28;20615;-72
2021/09/12 02:33:54;;;;;;;9.90;7.50;;;;;;;13.71;100.00;100846.66;5027427;28;20306;-73
2021/09/12 02:36:20;;;;;;;15.13;8.83;;;;;;;13.74;100.00;100851.81;5023075;28;20550;-72
2021/09/12 02:38:47;;;;;;;11.90;8.70;;;;;;;13.68;100.00;100844.13;5025768;28;20211;-73
2021/09/12 02:41:13;;;;;;;10.43;8.33;;;;;;;13.65;100.00;100849.50;5024575;28;20280;-72
2021/09/12 02:43:40;;;;;;;11.23;8.20;;;;;;;13.63;100.00;100853.94;5030778;28;20224;-72
2021/09/12 02:46:07;;;;;;;12.50;8.30;;;;;;;13.61;100.00;100858.38;5022700;28;20195;-72
2021/09/12 02:48:33;;;;;;;11.80;8.80;;;;;;;13.60;100.00;100848.81;5025016;28;20593;-73
2021/09/12 02:51:01;;;;;;;10.30;7.63;;;;;;;13.55;100.00;100848.13;5020941;28;20589;-72
2021/09/12 02:53:27;;;;;;;10.70;8.17;;;;;;;13.53;100.00;100848.16;5024714;28;20227;-72
2021/09/12 02:55:53;;;;;;;11.70;8.47;;;;;;;13.53;100.00;100852.56;5019841;28;20200;-73
2021/09/12 02:58:20;;;;;;;12.70;9.30;;;;;;;13.56;100.00;100849.81;5022861;28;20296;-73
2021/09/12 03:00:46;;;;;;;15.57;8.77;;;;;;;13.53;100.00;100842.94;5022631;28;20214;-72
2021/09/12 03:03:12;;;;;;;12.73;8.90;;;;;;;13.53;100.00;100848.16;5023238;28;20223;-72
2021/09/12 03:05:38;;;;;;;13.87;9.30;;;;;;;13.54;100.00;100838.53;5027015;28;20230;-73
2021/09/12 03:08:07;;;;;;;9.40;7.80;;;;;;;13.49;100.00;100843.06;5020687;28;21029;-72
2021/09/12 03:10:33;;;;;;;13.07;9.07;;;;;;;13.47;100.00;100839.66;5024933;28;20207;-73
2021/09/12 03:12:59;;;;;;;14.23;9.07;;;;;;;13.43;100.00;100841.53;5022166;28;20226;-71
2021/09/12 03:15:26;;;;;;;11.03;8.20;;;;;;;13.36;100.00;100837.41;5026621;28;20207;-72
2021/09/12 03:17:52;;;;;;;12.80;9.00;;;;;;;13.37;100.00;100840.00;5022172;28;20581;-73
2021/09/12 03:20:19;;;;;;;19.70;9.37;;;;;;;13.40;100.00;100842.50;5028653;28;20199;-73
2021/09/12 03:22:45;;;;;;;11.80;8.40;;;;;;;13.44;100.00;100833.63;5021880;28;20601;-71
2021/09/12 03:25:13;;;;;;;19.63;10.93;;;;;;;13.51;100.00;100830.78;5004554;28;20219;-73
2021/09/12 03:27:39;;;;;;;14.90;9.50;;;;;;;13.48;100.00;100829.13;5026181;28;20544;-73
2021/09/12 03:30:07;;;;;;;13.03;9.67;;;;;;;13.51;100.00;100826.41;5022015;28;20219;-73
2021/09/12 03:32:34;;;;;;;11.33;7.53;;;;;;;13.41;100.00;100828.50;5024433;28;20702;-73
2021/09/12 03:35:00;;;;;;;11.57;9.03;;;;;;;13.32;100.00;100834.06;5022173;28;20203;-73
2021/09/12 03:37:27;;;;;;;15.77;9.47;;;;;;;13.32;100.00;100841.91;5024435;28;20199;-72
2021/09/12 03:39:53;;;;;;;12.77;8.77;;;;;;;13.31;100.00;100839.31;5018447;28;20206;-73
2021/09/12 03:42:21;;;;;;;12.83;8.80;;;;;;;13.24;100.00;100834.28;5025113;28;20723;-73
2021/09/12 03:44:47;;;;;;;13.60;8.83;;;;;;;13.24;100.00;100830.78;5020310;28;20229;-73
2021/09/12 03:47:13;;;;;;;14.60;8.07;;;;;;;13.29;100.00;100833.28;5024562;28;20218;-73
2021/09/12 03:49:40;;;;;;;13.40;9.27;;;;;;;13.24;100.00;100828.19;5018947;28;20200;-73
2021/09/12 03:52:07;;;;;;;15.63;8.00;;;;;;;13.22;100.00;100828.22;5022612;28;20249;-73
2021/09/12 03:54:33;;;;;;;11.53;8.13;;;;;;;13.24;100.00;100830.78;5022277;28;20644;-72
2021/09/12 03:56:59;;;;;;;15.27;8.67;;;;;;;13.23;100.00;100842.19;5022524;28;20204;-72
2021/09/12 03:59:27;;;;;;;11.60;8.70;;;;;;;13.27;100.00;100844.63;5023404;28;20188;-72
2021/09/12 04:01:53;;;;;;;14.80;9.13;;;;;;;13.26;100.00;100842.06;5021667;28;20229;-73
2021/09/12 04:04:20;;;;;;;13.87;8.73;;;;;;;13.27;100.00;100847.25;5023179;28;20602;-72
2021/09/12 04:06:46;;;;;;;19.97;9.73;;;;;;;13.24;100.00;100851.75;5021738;28;20203;-72
2021/09/12 04:09:13;;;;;;;15.93;9.63;;;;;;;13.31;100.00;100842.81;5025416;28;20326;-73
2021/09/12 04:11:39;;;;;;;12.63;8.83;;;;;;;13.32;100.00;100844.53;5022042;28;20207;-73
2021/09/12 04:14:05;;;;;;;15.97;10.00;;;;;;;13.35;100.00;100846.16;5022760;28;20828;-73
2021/09/12 04:16:33;;;;;;;16.77;9.30;;;;;;;13.41;100.00;100846.81;5022579;28;20213;-72
2021/09/12 04:18:59;;;;;;;16.80;10.60;;;;;;;13.43;100.00;100839.75;5030171;28;20576;-73
2021/09/12 04:21:26;;;;;;;20.37;10.37;;;;;;;13.47;100.00;100840.50;5018091;28;20694;-73
2021/09/12 04:23:52;;;;;;;20.40;10.97;;;;;;;13.53;100.00;100839.47;5024296;28;20228;-73
2021/09/12 04:26:19;;;;;;;16.63;10.77;;;;;;;13.58;100.00;100837.53;5021212;28;20228;-73
2021/09/12 04:28:45;;;;;;;17.80;11.00;;;;;;;13.62;100.00;100837.38;5022820;28;20546;-71
2021/09/12 04:31:12;;;;;;;21.67;11.43;;;;;;;13.66;100.00;100847.75;5023037;28;20200;-74
2021/09/12 04:33:39;;;;;;;25.27;11.83;;;;;;;13.70;100.00;100844.09;5025617;28;20227;-72
2021/09/12 04:36:06;;;;;;;21.67;11.10;;;;;;;13.72;100.00;100845.75;5022134;28;20211;-73
2021/09/12 04:38:32;;;;;;;20.97;10.87;;;;;;;13.73;100.00;100846.59;5022598;28;20207;-73
2021/09/12 04:41:00;;;;;;;18.67;11.10;;;;;;;13.76;100.00;100849.97;5021253;28;20196;-73
2021/09/12 04:43:26;;;;;;;21.03;11.27;;;;;;;13.77;100.00;100856.94;5023019;28;20948;-73
2021/09/12 04:45:53;;;;;;;23.47;12.10;;;;;;;13.82;100.00;100859.38;5023359;28;20237;-72
2021/09/12 04:48:19;;;;;;;22.63;12.30;;;;;;;13.89;100.00;100854.78;5020204;28;20200;-73
2021/09/12 04:50:52;;;;;;;24.57;11.63;;;;;;;13.95;100.00;100849.31;5020201;28;20207;-73
2021/09/12 04:53:18;;;;;;;20.57;12.30;;;;;;;13.99;100.00;100857.00;5020698;28;20307;-73
2021/09/12 04:55:45;;;;;;;21.87;12.30;;;;;;;14.01;100.00;100862.19;5018161;28;20208;-72
2021/09/12 04:58:11;;;;;;;23.93;12.47;;;;;;;14.06;100.00;100857.63;5021772;28;20696;-72
2021/09/12 05:00:37;;;;;;;21.13;11.60;;;;;;;14.11;100.00;100852.22;5021308;28;20710;-73
2021/09/12 05:03:04;;;;;;;24.20;12.13;;;;;;;14.17;100.00;100844.13;5022061;28;20227;-72
2021/09/12 05:05:30;;;;;;;20.40;11.73;;;;;;;14.19;100.00;100850.16;5025000;28;20236;-73
2021/09/12 05:07:58;;;;;;;19.33;10.87;;;;;;;14.22;100.00;100855.28;5020084;28;20688;-73
2021/09/12 05:10:24;;;;;;;16.90;10.33;;;;;;;14.25;100.00;100854.31;5022125;28;20231;-73
2021/09/12 05:12:51;;;;;;;22.10;11.87;;;;;;;14.29;100.00;100851.53;5021099;28;20244;-73
2021/09/12 05:15:17;;;;;;;18.83;11.77;;;;;;;14.34;100.00;100853.97;5020839;28;20217;-73
2021/09/12 05:17:43;;;;;;;17.27;10.10;;;;;;;14.39;100.00;100859.91;5022238;28;20211;-73
2021/09/12 05:20:11;;;;;;;23.17;12.60;;;;;;;14.44;100.00;100862.34;5022060;28;20210;-73
2021/09/12 05:22:38;;;;;;;23.37;12.23;;;;;;;14.48;100.00;100859.56;5022951;28;20219;-73
2021/09/12 05:25:07;;;;;;;21.53;12.10;;;;;;;14.53;100.00;100859.38;5017939;28;20224;-73
2021/09/12 05:27:34;;;;;;;20.63;12.00;;;;;;;14.58;100.00;100860.94;5024299;28;20688;-73
2021/09/12 05:30:00;;;;;;;26.37;12.90;;;;;;;14.63;100.00;100863.38;5018677;28;20748;-73
2021/09/12 05:32:27;;;;;;;21.80;12.50;;;;;;;14.67;100.00;100853.59;5023994;28;20242;-73
2021/09/12 05:34:53;;;;;;;25.20;12.70;;;;;;;14.70;100.00;100866.59;5019604;28;20683;-73
2021/09/12 05:37:20;;;;;;;17.73;11.03;;;;;;;14.74;100.00;100857.72;5020176;28;20211;-73
2021/09/12 05:39:46;;;;;;;21.73;12.03;;;;;;;14.75;100.00;100857.63;5019679;28;20209;-74
2021/09/12 05:42:14;;;;;;;23.30;12.23;;;;;;;14.78;100.00;100861.91;5025730;28;20228;-73
2021/09/12 05:44:40;;;;;;;22.83;11.87;;;;;;;14.82;100.00;100860.88;5024744;28;20217;-73
2021/09/12 05:47:07;;;;;;;18.03;11.13;;;;;;;14.87;100.00;100864.16;5021240;28;20233;-73
2021/09/12 05:49:33;;;;;;;21.43;12.93;;;;;;;14.93;100.00;100863.94;5023451;28;20222;-73
2021/09/12 05:51:59;;;;;;;21.37;13.40;;;;;;;14.98;100.00;100868.13;5019386;28;20238;-73
2021/09/12 05:54:26;;;;;;;22.00;12.80;;;;;;;15.03;100.00;100868.81;5025055;28;20583;-73
2021/09/12 05:56:52;;;;;;;23.97;13.33;;;;;;;15.08;100.00;100872.09;5017636;28;20237;-73
2021/09/12 05:59:20;;;;;;;26.93;14.20;;;;;;;15.14;100.00;100874.47;5019609;28;20204;-74
2021/09/12 06:01:46;;;;;;;25.53;13.87;;;;;;;15.20;100.00;100868.97;5017111;28;20206;-73
2021/09/12 06:04:13;;;;;;;22.90;14.20;;;;;;;15.25;100.00;100867.00;5022184;28;20208;-73
2021/09/12 06:06:39;;;;;;;25.60;14.50;;;;;;;15.30;100.00;100870.31;5021545;28;20223;-73
2021/09/12 06:09:05;;;;;;;24.03;14.10;;;;;;;15.36;100.00;100865.72;5015229;28;20214;-73
2021/09/12 06:11:32;;;;;;;25.70;14.90;;;;;;;15.40;100.00;100875.16;5013379;28;20314;-73
2021/09/12 06:13:58;;;;;;;25.87;14.73;;;;;;;15.46;100.00;100886.28;5015616;28;20214;-73
2021/09/12 06:16:26;;;;;;;26.33;15.13;;;;;;;15.52;100.00;100877.25;5017253;28;20193;-74
2021/09/12 06:18:52;;;;;;;25.53;15.53;;;;;;;15.59;100.00;100880.50;5022288;28;20203;-74
2021/09/12 06:21:19;;;;;;;24.43;14.73;;;;;;;15.65;100.00;100873.16;5020663;28;20203;-73
2021/09/12 06:23:45;;;;;;;25.57;16.40;;;;;;;15.65;100.00;100872.31;5014312;28;20227;-73
2021/09/12 06:26:12;;;;;;;25.27;14.67;;;;;;;15.73;100.00;100875.47;5026785;28;20216;-74
2021/09/12 06:28:38;;;;;;;26.33;15.40;;;;;;;15.80;100.00;100878.75;5023387;28;20204;-73
2021/09/12 06:31:04;;;;;;;28.27;15.10;;;;;;;15.86;100.00;100881.94;5025066;28;21066;-73
2021/09/12 06:33:32;;;;;;;30.70;16.50;;;;;;;15.93;100.00;100884.31;5021807;28;20220;-74
2021/09/12 06:35:58;;;;;;;27.77;16.10;;;;;;;16.00;100.00;100881.31;5027380;28;20208;-73
2021/09/12 06:38:25;;;;;;;25.57;15.60;;;;;;;16.11;100.00;100878.19;5020327;28;20203;-74
2021/09/12 06:40:51;;;;;;;30.50;16.50;;;;;;;16.24;100.00;100882.00;5023096;28;20200;-73
2021/09/12 06:43:18;;;;;;;30.70;17.43;;;;;;;16.33;100.00;100872.81;5021517;28;20223;-73
2021/09/12 06:45:44;;;;;;;32.27;18.20;;;;;;;16.50;100.00;100886.97;5025181;28;20224;-73
2021/09/12 06:48:11;;;;;;;38.17;20.00;;;;;;;16.52;100.00;100893.03;5021413;28;20876;-73
2021/09/12 06:50:39;;;;;;;32.90;18.80;;;;;;;16.56;100.00;100884.06;5024406;28;20200;-74
2021/09/12 06:53:05;;;;;;;28.70;17.23;;;;;;;16.70;100.00;100888.69;5025125;28;20227;-73
2021/09/12 06:55:32;;;;;;;32.80;18.70;;;;;;;16.76;100.00;100873.44;5024440;28;20204;-73
2021/09/12 06:57:58;;;;;;;33.30;18.20;;;;;;;16.80;100.00;100888.16;5025462;28;20229;-73
2021/09/12 07:00:25;;;;;;;29.73;16.17;;;;;;;16.78;100.00;100887.38;5023497;28;20215;-73
2021/09/12 07:02:51;;;;;;;26.10;15.97;;;;;;;16.68;100.00;100888.75;5024769;28;20787;-74
2021/09/12 07:05:17;;;;;;;25.30;16.03;;;;;;;16.71;100.00;100887.72;5024051;28;20387;-73
2021/09/12 07:07:45;;;;;;;22.00;14.37;;;;;;;16.75;100.00;100892.78;5027789;28;20777;-74
2021/09/12 07:10:12;;;;;;;22.93;15.03;;;;;;;16.82;100.00;100896.84;5021369;28;20204;-74
2021/09/12 07:12:38;;;;;;;24.83;15.23;;;;;;;16.88;100.00;100897.50;5028398;28;20227;-73
2021/09/12 07:15:05;;;;;;;27.73;17.07;;;;;;;16.95;100.00;100889.22;5022029;28;20694;-73
2021/09/12 07:17:32;;;;;;;30.33;17.87;;;;;;;17.09;100.00;100890.34;5027862;28;20243;-73
2021/09/12 07:19:58;;;;;;;31.67;18.93;;;;;;;17.28;100.00;100885.03;5022472;28;20208;-74
2021/09/12 07:22:25;;;;;;;34.20;19.70;;;;;;;17.36;100.00;100891.59;5024402;28;20239;-73
2021/09/12 07:24:52;;;;;;;36.83;20.60;;;;;;;17.39;100.00;100893.22;5022594;28;20218;-73
2021/09/12 07:27:19;;;;;;;32.17;19.00;;;;;;;17.50;100.00;100890.03;5024137;28;20345;-73
2021/09/12 07:29:45;;;;;;;32.10;19.80;;;;;;;17.58;100.00;100896.63;5023885;28;20230;-73
2021/09/12 07:32:11;;;;;;;32.03;18.87;;;;;;;17.68;100.00;100893.53;5022472;28;20229;-73
2021/09/12 07:34:38;;;;;;;27.50;17.70;;;;;;;17.76;100.00;100905.41;5025306;28;20212;-73
2021/09/12 07:37:04;;;;;;;24.93;17.40;;;;;;;17.88;100.00;100898.66;5020318;28;21224;-73
2021/09/12 07:39:31;;;;;;;24.87;17.87;;;;;;;18.07;100.00;100903.81;5031504;28;20203;-73
2021/09/12 07:41:58;;;;;;;24.00;17.70;;;;;;;18.13;100.00;100905.25;5024171;28;20234;-73
2021/09/12 07:44:25;;;;;;;23.63;16.60;;;;;;;18.21;100.00;100903.06;5033067;28;20211;-73
2021/09/12 07:46:51;;;;;;;21.90;17.23;;;;;;;18.27;100.00;100900.09;5022768;28;20227;-73
2021/09/12 07:49:18;;;;;;;19.17;14.67;;;;;;;18.43;100.00;100912.47;5030328;28;20270;-73
2021/09/12 07:51:44;;;;;;;18.53;14.80;;;;;;;18.53;100.00;100911.03;5025123;28;20204;-73
2021/09/12 07:54:11;;;;;;;19.00;13.77;;;;;;;18.55;100.00;100919.72;5031810;28;20197;-73
2021/09/12 07:56:37;;;;;;;15.83;11.67;;;;;;;18.61;100.00;100919.38;5023796;28;20204;-74
2021/09/12 07:59:05;;;;;;;13.63;11.20;;;;;;;18.70;100.00;100926.78;5024570;28;20207;-73
2021/09/12 08:01:31;;;;;;;13.73;11.57;;;;;;;18.74;100.00;100924.84;5027105;28;20667;-74
2021/09/12 08:03:58;;;;;;;14.27;11.07;;;;;;;18.87;100.00;100925.03;5020733;28;20200;-73
2021/09/12 08:06:24;;;;;;;17.07;12.00;;;;;;;18.94;100.00;100928.19;5028694;28;20212;-74
2021/09/12 08:08:51;;;;;;;12.40;10.03;;;;;;;19.00;100.00;100928.69;5024080;28;20208;-74
2021/09/12 08:11:17;;;;;;;15.80;11.00;;;;;;;19.05;100.00;100936.34;5032799;28;20203;-73
2021/09/12 08:13:43;;;;;;;14.93;10.50;;;;;;;18.99;100.00;100940.19;5026814;28;20715;-73
2021/09/12 08:16:11;;;;;;;12.33;10.40;;;;;;;19.06;100.00;100933.63;5034943;28;20196;-74
2021/09/12 08:18:38;;;;;;;12.43;9.30;;;;;;;18.95;100.00;100941.31;5023765;28;20235;-74
2021/09/12 08:21:04;;;;;;;11.87;9.47;;;;;;;19.15;100.00;100941.97;5025483;28;21216;-73
2021/09/12 08:23:30;;;;;;;12.30;9.43;;;;;;;19.23;100.00;100937.09;5019783;28;20592;-74
2021/09/12 08:25:57;;;;;;;11.17;9.50;;;;;;;19.28;100.00;100941.19;5019725;28;20227;-73
2021/09/12 08:28:24;;;;;;;11.53;9.60;;;;;;;19.38;100.00;100940.63;5024392;28;20199;-73
2021/09/12 08:30:51;;;;;;;13.10;9.53;;;;;;;19.43;100.00;100950.00;5029023;28;20346;-74
2021/09/12 08:33:18;;;;;;;9.67;8.30;;;;;;;19.47;100.00;100946.25;5030036;28;20219;-74
2021/09/12 08:35:45;;;;;;;12.30;9.63;;;;;;;19.42;100.00;100943.03;5026646;28;20708;-74
2021/09/12 08:38:13;;;;;;;13.33;9.60;;;;;;;19.49;100.00;100941.72;5025160;28;20215;-74
2021/09/12 08:40:39;;;;;;;12.67;9.87;;;;;;;19.46;100.00;100941.91;5017164;28;20214;-74
2021/09/12 08:43:07;;;;;;;12.37;9.63;;;;;;;19.48;100.00;100940.00;5026565;28;20227;-74
2021/09/12 08:45:33;;;;;;;11.57;9.60;;;;;;;19.58;100.00;100939.50;5022094;28;20207;-74
2021/09/12 08:48:01;;;;;;;10.40;9.13;;;;;;;19.65;100.00;100931.09;5018342;28;20202;-74
2021/09/12 08:50:29;;;;;;;10.73;8.87;;;;;;;19.56;100.00;100942.22;5016695;28;20212;-74
2021/09/12 08:52:55;;;;;;;10.63;9.33;;;;;;;19.58;100.00;100935.03;5018442;28;20231;-74
2021/09/12 08:55:22;;;;;;;11.80;9.87;;;;;;;19.67;100.00;100938.94;5017264;28;20206;-74
2021/09/12 08:57:49;;;;;;;11.63;9.87;;;;;;;19.70;100.00;100933.47;5017493;28;20566;-74
2021/09/12 09:00:17;;;;;;;12.97;10.03;;;;;;;19.69;100.00;100942.34;5016715;28;20212;-74
2021/09/12 09:02:44;;;;;;;13.33;9.67;;;;;;;19.77;100.00;100931.31;5021660;28;20231;-74
2021/09/12 09:05:10;;;;;;;11.93;9.53;;;;;;;19.89;100.00;100930.59;5019705;28;20195;-74
2021/09/12 09:07:38;;;;;;;12.73;9.57;;;;;;;19.98;100.00;100938.00;5023998;28;20227;-74
2021/09/12 09:10:18;;;;;;;11.83;9.63;;;;;;;20.04;99.26;100936.75;5021067;28;20207;-74
2021/09/12 09:12:44;;;;;;;10.53;9.07;;;;;;;20.20;100.00;100932.22;5020577;28;20219;-74
2021/09/12 09:15:13;;;;;;;11.63;8.40;;;;;;;20.39;99.54;100928.44;5024913;28;20227;-74
2021/09/12 09:17:45;;;;;;;12.03;9.20;;;;;;;20.37;97.65;100925.03;5019703;28;20311;-74
2021/09/12 09:20:14;;;;;;;10.00;9.00;;;;;;;20.47;97.70;100930.59;5026200;28;20209;-74
2021/09/12 09:22:44;;;;;;;10.13;8.93;;;;;;;20.54;97.27;100926.63;5018255;28;20227;-74
2021/09/12 09:25:14;;;;;;;10.00;8.87;;;;;;;20.58;94.71;100938.72;5029204;28;20204;-74
2021/09/12 09:27:54;;;;;;;9.53;8.50;;;;;;;20.55;92.95;100929.16;5017789;28;20264;-74
2021/09/12 09:30:21;;;;;;;12.63;9.43;;;;;;;20.57;95.47;100931.72;5023770;28;20270;-74
2021/09/12 09:32:47;;;;;;;11.87;9.07;;;;;;;20.41;94.16;100935.31;5018153;28;20228;-74
2021/09/12 09:35:21;;;;;;;9.57;7.97;;;;;;;20.56;93.29;100924.72;5020404;28;20200;-74
2021/09/12 09:37:50;;;;;;;9.67;7.70;;;;;;;20.74;95.19;100920.09;5021012;28;20669;-74
2021/09/12 09:40:16;;;;;;;9.57;8.57;;;;;;;20.94;94.98;100919.63;5017309;28;20216;-74
2021/09/12 09:42:44;;;;;;;9.90;7.80;;;;;;;20.95;91.77;100925.81;5017319;28;20576;-74
2021/09/12 09:45:12;;;;;;;9.43;7.93;;;;;;;21.05;91.56;100928.69;5016354;28;20292;-74
2021/09/12 09:47:40;;;;;;;11.43;8.47;;;;;;;21.05;91.13;100924.22;5027282;28;20226;-74
2021/09/12 09:50:10;;;;;;;9.03;7.47;;;;;;;21.16;91.77;100920.91;5015667;28;20196;-74
2021/09/12 09:52:37;;;;;;;9.23;7.20;;;;;;;21.13;88.42;100926.41;5024552;28;20226;-74
2021/09/12 09:55:06;;;;;;;9.50;6.88;;;;;;;20.95;86.48;100931.13;5017876;28;20212;-74
2021/09/12 09:57:33;;;;;;;8.53;6.53;;;;;;;20.70;86.39;100930.03;5020830;28;20204;-74
2021/09/12 10:00:00;;;;;;;8.73;6.77;;;;;;;20.57;88.40;100931.72;5015999;28;20196;-74
2021/09/12 10:02:28;;;;;;;9.00;7.40;;;;;;;20.65;88.23;100925.97;5020867;28;21144;-74
2021/09/12 10:04:54;;;;;;;9.80;7.30;;;;;;;20.73;85.72;100927.16;5023072;28;20192;-74
2021/09/12 10:07:21;;;;;;;8.67;6.27;;;;;;;20.95;89.71;100923.16;5023807;28;20216;-74
2021/09/12 10:09:47;;;;;;;8.73;7.23;;;;;;;21.06;88.63;100915.34;5023570;28;20206;-74
2021/09/12 10:12:16;;;;;;;7.73;6.87;;;;;;;21.07;88.66;100922.34;5020880;28;20239;-74
2021/09/12 10:14:49;;;;;;;7.70;6.43;;;;;;;21.23;86.16;100921.31;5023752;28;20211;-75
2021/09/12 10:17:21;;;;;;;6.90;5.73;;;;;;;21.54;86.50;100920.16;5018603;28;20210;-75
2021/09/12 10:19:47;;;;;;;8.80;5.93;;;;;;;21.58;86.50;100919.00;5004911;28;20239;-74
2021/09/12 10:22:16;;;;;;;6.55;5.60;;;;;;;21.62;85.38;100920.50;5019535;28;20233;-75
2021/09/12 10:25:08;;;;;;;6.63;5.07;;;;;;;21.70;80.95;100926.13;5023509;28;20210;-74
2021/09/12 10:27:38;;;;;;;5.22;4.72;;;;;;;21.85;79.03;100926.03;5026228;28;20825;-75
2021/09/12 10:30:28;;;;;;;5.30;4.80;;;;;;;21.68;82.77;100919.22;5025660;28;20719;-75
2021/09/12 10:33:19;;;;;;;4.90;4.47;;;;;;;21.28;82.05;100925.41;5035727;28;20245;-74
2021/09/12 10:35:54;;;;;;;4.28;3.88;;;;;;;21.09;79.57;100935.47;5024992;28;20203;-74
2021/09/12 10:38:26;;;;;;;4.07;3.70;;;;;;;21.04;79.49;100924.38;5033277;28;20291;-74
2021/09/12 10:41:13;;;;;;;4.18;3.78;;;;;;;21.07;83.77;100916.19;5024772;28;20222;-74
2021/09/12 10:43:58;;;;;;;4.00;3.60;;;;;;;21.10;80.70;100913.34;5027930;28;20258;-74
2021/09/12 10:46:32;;;;;;;4.82;4.10;;;;;;;21.29;80.59;100919.13;5029227;28;20214;-74
2021/09/12 10:49:10;;;;;;;4.00;3.45;;;;;;;21.31;78.24;100911.91;5021017;28;20294;-74
2021/09/12 10:51:38;;;;;;;4.23;3.80;;;;;;;21.41;82.09;100909.50;5027836;28;20258;-73
2021/09/12 10:54:05;;;;;;;4.90;4.00;;;;;;;21.46;78.30;100906.56;5020226;28;21031;-74
2021/09/12 10:56:33;;;;;;;4.90;3.73;;;;;;;21.28;79.89;100906.84;5026206;28;20204;-74
2021/09/12 10:59:01;;;;;;;4.75;4.30;;;;;;;21.37;78.69;100908.00;5017143;28;20200;-74
2021/09/12 11:01:29;;;;;;;4.28;3.75;;;;;;;21.55;78.41;100906.78;5025127;28;20869;-74
2021/09/12 11:03:57;;;;;;;4.47;3.40;;;;;;;21.67;78.42;100890.97;5024139;28;20208;-74
2021/09/12 11:06:23;;;;;;;4.15;3.75;;;;;;;21.83;77.52;100901.38;5031347;28;20224;-74
2021/09/12 11:08:50;;;;;;;4.88;3.63;;;;;;;22.05;80.14;100896.28;5018957;28;20254;-74
2021/09/12 11:11:17;;;;;;;4.22;3.80;;;;;;;21.96;75.73;100904.91;5022427;28;20229;-73